sensor_id;sensor_type;location;lat;lon;timestamp;P1;durP1;ratioP1;P2;durP2;ratioP2
16029;SDS011;34770;49.272;11.070;2024-02-21T10:59:55;17.08;;;2.67;;
16029;SDS011;34770;49.272;11.070;2024-02-21T11:04:16;3.92;;;2.10;;
16029;SDS011;34770;49.272;11.070;2024-02-21T11:06:42;2.72;;;1.77;;
16029;SDS011;34770;49.272;11.070;2024-02-21T11:09:08;4.82;;;2.50;;
16029;SDS011;34770;49.272;11.070;2024-02-21T11:11:38;2.88;;;2.15;;
16029;SDS011;34770;49.272;11.070;2024-02-21T11:16:37;3.92;;;2.35;;
16029;SDS011;34770;49.272;11.070;2024-02-21T11:19:23;3.78;;;1.90;;
16029;SDS011;34770;49.272;11.070;2024-02-21T11:21:49;3.35;;;1.63;;
16029;SDS011;34770;49.272;11.070;2024-02-21T11:24:25;4.07;;;2.05;;
16029;SDS011;34770;49.272;11.070;2024-02-21T11:26:52;3.22;;;1.80;;
16029;SDS011;34770;49.272;11.070;2024-02-21T11:29:23;4.13;;;2.08;;
16029;SDS011;34770;49.272;11.070;2024-02-21T11:31:49;3.47;;;1.83;;
16029;SDS011;34770;49.272;11.070;2024-02-21T11:34:17;2.47;;;1.98;;
16029;SDS011;34770;49.272;11.070;2024-02-21T11:36:47;3.13;;;1.75;;
16029;SDS011;34770;49.272;11.070;2024-02-21T11:39:24;4.97;;;1.90;;
16029;SDS011;34770;49.272;11.070;2024-02-21T11:42:03;2.92;;;1.92;;
16029;SDS011;34770;49.272;11.070;2024-02-21T11:44:30;4.18;;;2.08;;
16029;SDS011;34770;49.272;11.070;2024-02-21T11:46:56;4.70;;;1.90;;
16029;SDS011;34770;49.272;11.070;2024-02-21T11:49:28;4.57;;;2.15;;
16029;SDS011;34770;49.272;11.070;2024-02-21T11:52:00;2.90;;;1.88;;
16029;SDS011;34770;49.272;11.070;2024-02-21T11:54:28;3.45;;;2.10;;
16029;SDS011;34770;49.272;11.070;2024-02-21T11:56:54;5.65;;;1.70;;
16029;SDS011;34770;49.272;11.070;2024-02-21T11:59:20;4.50;;;1.90;;
16029;SDS011;34770;49.272;11.070;2024-02-21T12:01:46;2.85;;;1.70;;
16029;SDS011;34770;49.272;11.070;2024-02-21T12:04:11;7.05;;;1.95;;
16029;SDS011;34770;49.272;11.070;2024-02-21T12:06:38;2.83;;;1.77;;
16029;SDS011;34770;49.272;11.070;2024-02-21T12:09:05;2.92;;;1.67;;
16029;SDS011;34770;49.272;11.070;2024-02-21T12:11:34;4.53;;;1.70;;
16029;SDS011;34770;49.272;11.070;2024-02-21T12:14:03;4.05;;;1.80;;
16029;SDS011;34770;49.272;11.070;2024-02-21T12:16:33;9.93;;;2.15;;
16029;SDS011;34770;49.272;11.070;2024-02-21T12:18:59;3.33;;;1.35;;
16029;SDS011;34770;49.272;11.070;2024-02-21T12:21:34;1.90;;;1.20;;
16029;SDS011;34770;49.272;11.070;2024-02-21T12:26:47;1.38;;;1.27;;
16029;SDS011;34770;49.272;11.070;2024-02-21T12:29:12;2.20;;;1.30;;
16029;SDS011;34770;49.272;11.070;2024-02-21T12:31:38;3.40;;;1.52;;
16029;SDS011;34770;49.272;11.070;2024-02-21T12:34:04;4.97;;;1.58;;
16029;SDS011;34770;49.272;11.070;2024-02-21T12:36:33;4.75;;;1.98;;
16029;SDS011;34770;49.272;11.070;2024-02-21T12:38:59;2.17;;;1.30;;
16029;SDS011;34770;49.272;11.070;2024-02-21T12:41:26;2.72;;;1.42;;
16029;SDS011;34770;49.272;11.070;2024-02-21T12:43:52;2.22;;;1.33;;
16029;SDS011;34770;49.272;11.070;2024-02-21T12:46:18;3.85;;;1.92;;
16029;SDS011;34770;49.272;11.070;2024-02-21T12:48:43;2.45;;;1.38;;
16029;SDS011;34770;49.272;11.070;2024-02-21T12:51:09;3.08;;;1.38;;
16029;SDS011;34770;49.272;11.070;2024-02-21T12:53:34;2.67;;;1.17;;
16029;SDS011;34770;49.272;11.070;2024-02-21T12:56:00;3.00;;;1.60;;
16029;SDS011;34770;49.272;11.070;2024-02-21T12:58:25;2.22;;;1.52;;
16029;SDS011;34770;49.272;11.070;2024-02-21T13:00:51;4.18;;;1.58;;
16029;SDS011;34770;49.272;11.070;2024-02-21T13:03:16;3.38;;;1.63;;
16029;SDS011;34770;49.272;11.070;2024-02-21T13:05:41;4.15;;;1.45;;
16029;SDS011;34770;49.272;11.070;2024-02-21T13:08:08;3.30;;;1.48;;
16029;SDS011;34770;49.272;11.070;2024-02-21T13:10:34;3.05;;;1.27;;
16029;SDS011;34770;49.272;11.070;2024-02-21T13:13:00;3.25;;;1.73;;
16029;SDS011;34770;49.272;11.070;2024-02-21T13:15:26;2.67;;;1.30;;
16029;SDS011;34770;49.272;11.070;2024-02-21T13:17:53;3.10;;;1.75;;
16029;SDS011;34770;49.272;11.070;2024-02-21T13:20:19;2.88;;;1.25;;
16029;SDS011;34770;49.272;11.070;2024-02-21T13:22:44;1.98;;;1.30;;
16029;SDS011;34770;49.272;11.070;2024-02-21T13:25:10;2.55;;;1.48;;
16029;SDS011;34770;49.272;11.070;2024-02-21T13:27:35;3.92;;;1.50;;
16029;SDS011;34770;49.272;11.070;2024-02-21T13:30:01;3.50;;;1.42;;
16029;SDS011;34770;49.272;11.070;2024-02-21T13:32:30;4.20;;;1.77;;
16029;SDS011;34770;49.272;11.070;2024-02-21T13:48:05;4.57;;;2.45;;
16029;SDS011;34770;49.272;11.070;2024-02-21T13:50:31;5.30;;;2.20;;
16029;SDS011;34770;49.272;11.070;2024-02-21T13:52:57;6.03;;;2.30;;
16029;SDS011;34770;49.272;11.070;2024-02-21T13:55:22;3.63;;;2.10;;
16029;SDS011;34770;49.272;11.070;2024-02-21T13:57:51;4.00;;;2.60;;
16029;SDS011;34770;49.272;11.070;2024-02-21T14:00:17;5.60;;;2.50;;
16029;SDS011;34770;49.272;11.070;2024-02-21T14:02:43;8.10;;;2.33;;
16029;SDS011;34770;49.272;11.070;2024-02-21T14:05:09;5.68;;;2.13;;
16029;SDS011;34770;49.272;11.070;2024-02-21T14:07:35;4.07;;;2.92;;
16029;SDS011;34770;49.272;11.070;2024-02-21T14:10:00;4.88;;;2.28;;
16029;SDS011;34770;49.272;11.070;2024-02-21T14:12:26;5.82;;;2.83;;
16029;SDS011;34770;49.272;11.070;2024-02-21T14:14:51;3.20;;;1.90;;
16029;SDS011;34770;49.272;11.070;2024-02-21T14:17:17;4.55;;;2.17;;
16029;SDS011;34770;49.272;11.070;2024-02-21T14:19:43;3.97;;;2.40;;
16029;SDS011;34770;49.272;11.070;2024-02-21T14:22:09;3.63;;;2.10;;
16029;SDS011;34770;49.272;11.070;2024-02-21T14:24:36;5.07;;;2.72;;
16029;SDS011;34770;49.272;11.070;2024-02-21T14:27:01;5.60;;;2.25;;
16029;SDS011;34770;49.272;11.070;2024-02-21T14:29:28;4.03;;;2.33;;
16029;SDS011;34770;49.272;11.070;2024-02-21T14:31:54;4.68;;;2.40;;
16029;SDS011;34770;49.272;11.070;2024-02-21T14:34:19;5.72;;;2.60;;
16029;SDS011;34770;49.272;11.070;2024-02-21T14:36:45;6.68;;;2.10;;
16029;SDS011;34770;49.272;11.070;2024-02-21T14:39:11;6.68;;;3.75;;
16029;SDS011;34770;49.272;11.070;2024-02-21T14:41:36;3.40;;;2.67;;
16029;SDS011;34770;49.272;11.070;2024-02-21T14:44:04;4.10;;;2.20;;
16029;SDS011;34770;49.272;11.070;2024-02-21T14:46:30;6.90;;;2.75;;
16029;SDS011;34770;49.272;11.070;2024-02-21T14:48:55;8.90;;;5.30;;
16029;SDS011;34770;49.272;11.070;2024-02-21T14:51:21;3.67;;;2.70;;
16029;SDS011;34770;49.272;11.070;2024-02-21T14:53:46;6.80;;;4.15;;
16029;SDS011;34770;49.272;11.070;2024-02-21T14:56:12;5.30;;;3.55;;
16029;SDS011;34770;49.272;11.070;2024-02-21T14:58:39;10.80;;;5.82;;
16029;SDS011;34770;49.272;11.070;2024-02-21T15:01:07;7.13;;;3.30;;
16029;SDS011;34770;49.272;11.070;2024-02-21T15:03:32;8.85;;;5.95;;
16029;SDS011;34770;49.272;11.070;2024-02-21T15:05:58;9.15;;;6.45;;
16029;SDS011;34770;49.272;11.070;2024-02-21T15:08:23;5.65;;;3.33;;
16029;SDS011;34770;49.272;11.070;2024-02-21T15:10:49;8.52;;;4.10;;
16029;SDS011;34770;49.272;11.070;2024-02-21T15:13:15;8.32;;;3.08;;
16029;SDS011;34770;49.272;11.070;2024-02-21T15:15:41;5.18;;;2.75;;
16029;SDS011;34770;49.272;11.070;2024-02-21T15:18:06;3.55;;;2.55;;
16029;SDS011;34770;49.272;11.070;2024-02-21T15:20:32;7.88;;;3.28;;
16029;SDS011;34770;49.272;11.070;2024-02-21T15:22:57;5.82;;;3.03;;
16029;SDS011;34770;49.272;11.070;2024-02-21T15:25:23;8.57;;;4.97;;
16029;SDS011;34770;49.272;11.070;2024-02-21T15:27:50;5.15;;;2.63;;
16029;SDS011;34770;49.272;11.070;2024-02-21T15:30:15;4.38;;;2.65;;
16029;SDS011;34770;49.272;11.070;2024-02-21T15:32:41;3.80;;;2.20;;
16029;SDS011;34770;49.272;11.070;2024-02-21T15:35:09;6.25;;;3.28;;
16029;SDS011;34770;49.272;11.070;2024-02-21T15:37:38;5.10;;;3.67;;
16029;SDS011;34770;49.272;11.070;2024-02-21T15:40:04;2.30;;;2.13;;
16029;SDS011;34770;49.272;11.070;2024-02-21T15:42:33;5.55;;;2.40;;
16029;SDS011;34770;49.272;11.070;2024-02-21T15:44:59;3.10;;;2.40;;
16029;SDS011;34770;49.272;11.070;2024-02-21T15:47:30;5.53;;;2.47;;
16029;SDS011;34770;49.272;11.070;2024-02-21T15:49:56;4.35;;;2.30;;
16029;SDS011;34770;49.272;11.070;2024-02-21T15:52:22;4.15;;;2.20;;
16029;SDS011;34770;49.272;11.070;2024-02-21T15:54:47;11.15;;;3.45;;
16029;SDS011;34770;49.272;11.070;2024-02-21T15:57:13;3.83;;;3.33;;
16029;SDS011;34770;49.272;11.070;2024-02-21T15:59:39;4.70;;;3.25;;
16029;SDS011;34770;49.272;11.070;2024-02-21T16:02:05;5.65;;;3.00;;
16029;SDS011;34770;49.272;11.070;2024-02-21T16:04:30;6.95;;;3.78;;
16029;SDS011;34770;49.272;11.070;2024-02-21T16:06:58;29.65;;;20.58;;
16029;SDS011;34770;49.272;11.070;2024-02-21T16:09:25;9.45;;;5.35;;
16029;SDS011;34770;49.272;11.070;2024-02-21T16:11:54;4.20;;;3.80;;
16029;SDS011;34770;49.272;11.070;2024-02-21T16:14:19;5.28;;;3.50;;
16029;SDS011;34770;49.272;11.070;2024-02-21T16:16:46;4.68;;;3.03;;
16029;SDS011;34770;49.272;11.070;2024-02-21T16:19:11;3.63;;;3.17;;
16029;SDS011;34770;49.272;11.070;2024-02-21T16:21:38;6.72;;;4.15;;
16029;SDS011;34770;49.272;11.070;2024-02-21T16:24:03;7.10;;;4.53;;
16029;SDS011;34770;49.272;11.070;2024-02-21T16:26:29;4.97;;;4.07;;
16029;SDS011;34770;49.272;11.070;2024-02-21T16:28:55;6.30;;;4.05;;
16029;SDS011;34770;49.272;11.070;2024-02-21T16:31:20;5.95;;;3.58;;
16029;SDS011;34770;49.272;11.070;2024-02-21T16:33:46;7.35;;;3.00;;
16029;SDS011;34770;49.272;11.070;2024-02-21T16:36:24;6.68;;;3.00;;
16029;SDS011;34770;49.272;11.070;2024-02-21T16:38:50;6.03;;;3.03;;
16029;SDS011;34770;49.272;11.070;2024-02-21T16:41:16;3.78;;;2.80;;
16029;SDS011;34770;49.272;11.070;2024-02-21T16:43:48;5.80;;;3.10;;
16029;SDS011;34770;49.272;11.070;2024-02-21T16:46:13;5.10;;;2.80;;
16029;SDS011;34770;49.272;11.070;2024-02-21T16:48:40;3.40;;;2.90;;
16029;SDS011;34770;49.272;11.070;2024-02-21T16:51:06;4.40;;;3.05;;
16029;SDS011;34770;49.272;11.070;2024-02-21T16:53:32;7.53;;;4.95;;
16029;SDS011;34770;49.272;11.070;2024-02-21T16:55:57;10.00;;;7.13;;
16029;SDS011;34770;49.272;11.070;2024-02-21T16:58:27;7.90;;;4.43;;
16029;SDS011;34770;49.272;11.070;2024-02-21T17:00:55;7.15;;;5.20;;
16029;SDS011;34770;49.272;11.070;2024-02-21T17:03:21;7.95;;;3.80;;
16029;SDS011;34770;49.272;11.070;2024-02-21T17:05:48;4.53;;;3.38;;
16029;SDS011;34770;49.272;11.070;2024-02-21T17:08:15;4.13;;;3.72;;
16029;SDS011;34770;49.272;11.070;2024-02-21T17:10:40;3.95;;;3.35;;
16029;SDS011;34770;49.272;11.070;2024-02-21T17:13:06;4.82;;;4.07;;
16029;SDS011;34770;49.272;11.070;2024-02-21T17:15:31;5.25;;;4.20;;
16029;SDS011;34770;49.272;11.070;2024-02-21T17:17:57;7.60;;;4.78;;
16029;SDS011;34770;49.272;11.070;2024-02-21T17:20:23;6.53;;;4.72;;
16029;SDS011;34770;49.272;11.070;2024-02-21T17:22:49;5.90;;;4.28;;
16029;SDS011;34770;49.272;11.070;2024-02-21T17:25:14;6.22;;;4.40;;
16029;SDS011;34770;49.272;11.070;2024-02-21T17:27:40;6.50;;;4.70;;
16029;SDS011;34770;49.272;11.070;2024-02-21T17:30:06;6.60;;;4.43;;
16029;SDS011;34770;49.272;11.070;2024-02-21T17:32:33;6.75;;;4.25;;
16029;SDS011;34770;49.272;11.070;2024-02-21T17:35:00;6.03;;;3.90;;
16029;SDS011;34770;49.272;11.070;2024-02-21T17:37:26;10.70;;;6.45;;
16029;SDS011;34770;49.272;11.070;2024-02-21T17:39:52;8.82;;;5.25;;
16029;SDS011;34770;49.272;11.070;2024-02-21T17:42:18;7.15;;;5.20;;
16029;SDS011;34770;49.272;11.070;2024-02-21T17:44:44;7.28;;;5.32;;
16029;SDS011;34770;49.272;11.070;2024-02-21T17:47:11;5.63;;;4.70;;
16029;SDS011;34770;49.272;11.070;2024-02-21T17:49:37;7.60;;;6.25;;
16029;SDS011;34770;49.272;11.070;2024-02-21T17:52:03;5.63;;;4.70;;
16029;SDS011;34770;49.272;11.070;2024-02-21T17:54:29;5.35;;;4.53;;
16029;SDS011;34770;49.272;11.070;2024-02-21T17:56:54;7.60;;;4.93;;
16029;SDS011;34770;49.272;11.070;2024-02-21T17:59:21;9.57;;;5.32;;
16029;SDS011;34770;49.272;11.070;2024-02-21T18:01:46;7.75;;;5.05;;
16029;SDS011;34770;49.272;11.070;2024-02-21T18:04:11;8.10;;;5.03;;
16029;SDS011;34770;49.272;11.070;2024-02-21T18:06:37;4.45;;;4.03;;
16029;SDS011;34770;49.272;11.070;2024-02-21T18:09:03;12.25;;;9.52;;
16029;SDS011;34770;49.272;11.070;2024-02-21T18:11:29;14.27;;;12.57;;
16029;SDS011;34770;49.272;11.070;2024-02-21T18:13:55;14.57;;;10.45;;
16029;SDS011;34770;49.272;11.070;2024-02-21T18:16:22;10.00;;;6.30;;
16029;SDS011;34770;49.272;11.070;2024-02-21T18:18:49;6.13;;;5.10;;
16029;SDS011;34770;49.272;11.070;2024-02-21T18:21:14;6.68;;;4.35;;
16029;SDS011;34770;49.272;11.070;2024-02-21T18:23:40;5.47;;;3.80;;
16029;SDS011;34770;49.272;11.070;2024-02-21T18:26:05;6.50;;;4.07;;
16029;SDS011;34770;49.272;11.070;2024-02-21T18:28:31;7.13;;;4.75;;
16029;SDS011;34770;49.272;11.070;2024-02-21T18:30:56;10.98;;;4.50;;
16029;SDS011;34770;49.272;11.070;2024-02-21T18:33:22;6.00;;;3.53;;
16029;SDS011;34770;49.272;11.070;2024-02-21T18:35:48;5.57;;;4.40;;
16029;SDS011;34770;49.272;11.070;2024-02-21T18:38:16;6.90;;;3.95;;
16029;SDS011;34770;49.272;11.070;2024-02-21T18:40:42;4.38;;;2.90;;
16029;SDS011;34770;49.272;11.070;2024-02-21T18:43:07;6.28;;;3.75;;
16029;SDS011;34770;49.272;11.070;2024-02-21T18:45:33;3.50;;;3.20;;
16029;SDS011;34770;49.272;11.070;2024-02-21T18:47:59;6.25;;;4.13;;
16029;SDS011;34770;49.272;11.070;2024-02-21T18:50:24;8.95;;;4.18;;
16029;SDS011;34770;49.272;11.070;2024-02-21T18:52:50;5.25;;;3.67;;
16029;SDS011;34770;49.272;11.070;2024-02-21T18:55:18;4.63;;;3.92;;
16029;SDS011;34770;49.272;11.070;2024-02-21T18:57:43;4.53;;;3.90;;
16029;SDS011;34770;49.272;11.070;2024-02-21T19:00:09;4.63;;;3.55;;
16029;SDS011;34770;49.272;11.070;2024-02-21T19:02:39;4.35;;;3.17;;
16029;SDS011;34770;49.272;11.070;2024-02-21T19:05:05;6.68;;;4.40;;
16029;SDS011;34770;49.272;11.070;2024-02-21T19:07:30;6.28;;;4.13;;
16029;SDS011;34770;49.272;11.070;2024-02-21T19:09:59;6.35;;;3.22;;
16029;SDS011;34770;49.272;11.070;2024-02-21T19:12:25;8.93;;;3.70;;
16029;SDS011;34770;49.272;11.070;2024-02-21T19:14:51;5.47;;;3.97;;
16029;SDS011;34770;49.272;11.070;2024-02-21T19:17:16;5.05;;;3.38;;
16029;SDS011;34770;49.272;11.070;2024-02-21T19:19:42;7.20;;;4.75;;
16029;SDS011;34770;49.272;11.070;2024-02-21T19:22:09;10.07;;;7.00;;
16029;SDS011;34770;49.272;11.070;2024-02-21T19:24:35;13.85;;;10.18;;
16029;SDS011;34770;49.272;11.070;2024-02-21T19:27:00;30.58;;;17.73;;
16029;SDS011;34770;49.272;11.070;2024-02-21T19:29:27;31.83;;;18.73;;
16029;SDS011;34770;49.272;11.070;2024-02-21T19:31:53;17.88;;;10.57;;
16029;SDS011;34770;49.272;11.070;2024-02-21T19:34:18;12.18;;;7.85;;
16029;SDS011;34770;49.272;11.070;2024-02-21T19:36:45;9.93;;;6.68;;
16029;SDS011;34770;49.272;11.070;2024-02-21T19:39:10;6.57;;;5.68;;
16029;SDS011;34770;49.272;11.070;2024-02-21T19:41:36;7.53;;;5.32;;
16029;SDS011;34770;49.272;11.070;2024-02-21T19:44:02;8.40;;;4.40;;
16029;SDS011;34770;49.272;11.070;2024-02-21T19:46:27;4.63;;;3.50;;
16029;SDS011;34770;49.272;11.070;2024-02-21T19:48:53;4.32;;;3.80;;
16029;SDS011;34770;49.272;11.070;2024-02-21T19:51:19;7.05;;;3.60;;
16029;SDS011;34770;49.272;11.070;2024-02-21T19:53:44;5.22;;;3.80;;
16029;SDS011;34770;49.272;11.070;2024-02-21T19:56:10;6.20;;;3.90;;
16029;SDS011;34770;49.272;11.070;2024-02-21T19:58:39;14.88;;;8.95;;
16029;SDS011;34770;49.272;11.070;2024-02-21T20:01:04;8.13;;;5.25;;
16029;SDS011;34770;49.272;11.070;2024-02-21T20:03:30;10.57;;;6.40;;
16029;SDS011;34770;49.272;11.070;2024-02-21T20:05:55;9.55;;;7.00;;
16029;SDS011;34770;49.272;11.070;2024-02-21T20:08:21;10.82;;;7.10;;
16029;SDS011;34770;49.272;11.070;2024-02-21T20:10:47;7.35;;;4.57;;
16029;SDS011;34770;49.272;11.070;2024-02-21T20:13:13;6.47;;;4.93;;
16029;SDS011;34770;49.272;11.070;2024-02-21T20:15:39;4.28;;;3.85;;
16029;SDS011;34770;49.272;11.070;2024-02-21T20:18:07;4.90;;;4.32;;
16029;SDS011;34770;49.272;11.070;2024-02-21T20:20:32;5.32;;;4.82;;
16029;SDS011;34770;49.272;11.070;2024-02-21T20:22:59;5.13;;;4.57;;
16029;SDS011;34770;49.272;11.070;2024-02-21T20:25:25;6.00;;;4.38;;
16029;SDS011;34770;49.272;11.070;2024-02-21T20:27:50;4.60;;;4.18;;
16029;SDS011;34770;49.272;11.070;2024-02-21T20:30:16;6.07;;;4.70;;
16029;SDS011;34770;49.272;11.070;2024-02-21T20:32:42;6.57;;;5.43;;
16029;SDS011;34770;49.272;11.070;2024-02-21T20:35:08;5.50;;;4.90;;
16029;SDS011;34770;49.272;11.070;2024-02-21T20:37:35;3.97;;;3.58;;
16029;SDS011;34770;49.272;11.070;2024-02-21T20:40:01;4.45;;;3.83;;
16029;SDS011;34770;49.272;11.070;2024-02-21T20:42:31;5.32;;;3.35;;
16029;SDS011;34770;49.272;11.070;2024-02-21T20:44:57;4.38;;;3.38;;
16029;SDS011;34770;49.272;11.070;2024-02-21T20:47:23;3.45;;;3.15;;
16029;SDS011;34770;49.272;11.070;2024-02-21T20:49:50;4.05;;;3.10;;
16029;SDS011;34770;49.272;11.070;2024-02-21T20:52:18;4.85;;;3.20;;
16029;SDS011;34770;49.272;11.070;2024-02-21T20:54:44;3.45;;;2.95;;
16029;SDS011;34770;49.272;11.070;2024-02-21T20:57:09;3.20;;;2.90;;
16029;SDS011;34770;49.272;11.070;2024-02-21T20:59:35;3.38;;;2.95;;
16029;SDS011;34770;49.272;11.070;2024-02-21T21:02:00;4.32;;;3.70;;
16029;SDS011;34770;49.272;11.070;2024-02-21T21:04:26;6.05;;;4.25;;
16029;SDS011;34770;49.272;11.070;2024-02-21T21:06:51;4.65;;;3.50;;
16029;SDS011;34770;49.272;11.070;2024-02-21T21:09:17;3.40;;;3.10;;
16029;SDS011;34770;49.272;11.070;2024-02-21T21:11:43;4.28;;;3.60;;
16029;SDS011;34770;49.272;11.070;2024-02-21T21:14:11;3.63;;;3.08;;
16029;SDS011;34770;49.272;11.070;2024-02-21T21:16:36;4.13;;;2.72;;
16029;SDS011;34770;49.272;11.070;2024-02-21T21:19:02;4.05;;;2.80;;
16029;SDS011;34770;49.272;11.070;2024-02-21T21:21:27;3.47;;;2.85;;
16029;SDS011;34770;49.272;11.070;2024-02-21T21:23:52;3.53;;;2.38;;
16029;SDS011;34770;49.272;11.070;2024-02-21T21:26:18;2.33;;;2.20;;
16029;SDS011;34770;49.272;11.070;2024-02-21T21:28:44;3.33;;;2.63;;
16029;SDS011;34770;49.272;11.070;2024-02-21T21:31:09;3.08;;;2.78;;
16029;SDS011;34770;49.272;11.070;2024-02-21T21:33:35;3.00;;;2.42;;
16029;SDS011;34770;49.272;11.070;2024-02-21T21:36:00;2.55;;;2.35;;
16029;SDS011;34770;49.272;11.070;2024-02-21T21:38:26;5.07;;;3.45;;
16029;SDS011;34770;49.272;11.070;2024-02-21T21:40:52;9.07;;;6.15;;
16029;SDS011;34770;49.272;11.070;2024-02-21T21:43:17;4.80;;;3.50;;
16029;SDS011;34770;49.272;11.070;2024-02-21T21:45:43;7.28;;;3.88;;
16029;SDS011;34770;49.272;11.070;2024-02-21T21:48:08;4.60;;;3.53;;
16029;SDS011;34770;49.272;11.070;2024-02-21T21:50:34;10.75;;;5.85;;
16029;SDS011;34770;49.272;11.070;2024-02-21T21:53:00;7.00;;;5.05;;
16029;SDS011;34770;49.272;11.070;2024-02-21T21:55:27;13.05;;;8.10;;
16029;SDS011;34770;49.272;11.070;2024-02-21T21:57:53;8.52;;;5.70;;
16029;SDS011;34770;49.272;11.070;2024-02-21T22:00:18;18.20;;;8.05;;
16029;SDS011;34770;49.272;11.070;2024-02-21T22:02:44;11.10;;;6.03;;
16029;SDS011;34770;49.272;11.070;2024-02-21T22:05:12;14.10;;;9.38;;
16029;SDS011;34770;49.272;11.070;2024-02-21T22:07:39;11.80;;;7.93;;
16029;SDS011;34770;49.272;11.070;2024-02-21T22:10:05;14.38;;;8.50;;
16029;SDS011;34770;49.272;11.070;2024-02-21T22:12:31;13.82;;;8.93;;
16029;SDS011;34770;49.272;11.070;2024-02-21T22:14:57;11.25;;;7.95;;
16029;SDS011;34770;49.272;11.070;2024-02-21T22:17:22;7.07;;;5.82;;
16029;SDS011;34770;49.272;11.070;2024-02-21T22:19:48;6.38;;;5.22;;
16029;SDS011;34770;49.272;11.070;2024-02-21T22:22:13;3.03;;;2.72;;
16029;SDS011;34770;49.272;11.070;2024-02-21T22:24:39;4.18;;;2.65;;
16029;SDS011;34770;49.272;11.070;2024-02-21T22:27:09;2.85;;;2.55;;
16029;SDS011;34770;49.272;11.070;2024-02-21T22:29:34;3.28;;;2.42;;
16029;SDS011;34770;49.272;11.070;2024-02-21T22:32:01;3.00;;;2.70;;
16029;SDS011;34770;49.272;11.070;2024-02-21T22:34:26;2.65;;;2.45;;
16029;SDS011;34770;49.272;11.070;2024-02-21T22:36:52;2.40;;;2.08;;
16029;SDS011;34770;49.272;11.070;2024-02-21T22:39:17;2.53;;;2.30;;
16029;SDS011;34770;49.272;11.070;2024-02-21T22:41:44;4.22;;;2.40;;
16029;SDS011;34770;49.272;11.070;2024-02-21T22:44:10;3.15;;;2.47;;
16029;SDS011;34770;49.272;11.070;2024-02-21T22:46:36;2.40;;;2.20;;
16029;SDS011;34770;49.272;11.070;2024-02-21T22:49:03;3.47;;;2.45;;
16029;SDS011;34770;49.272;11.070;2024-02-21T22:51:29;3.33;;;2.50;;
16029;SDS011;34770;49.272;11.070;2024-02-21T22:53:54;2.80;;;2.30;;
16029;SDS011;34770;49.272;11.070;2024-02-21T22:56:20;3.65;;;2.58;;
16029;SDS011;34770;49.272;11.070;2024-02-21T22:58:45;4.38;;;2.47;;
16029;SDS011;34770;49.272;11.070;2024-02-21T23:01:14;3.83;;;3.17;;
16029;SDS011;34770;49.272;11.070;2024-02-21T23:03:42;3.70;;;2.67;;
16029;SDS011;34770;49.272;11.070;2024-02-21T23:06:07;2.58;;;2.03;;
16029;SDS011;34770;49.272;11.070;2024-02-21T23:08:33;3.28;;;2.67;;
16029;SDS011;34770;49.272;11.070;2024-02-21T23:10:58;2.58;;;2.38;;
16029;SDS011;34770;49.272;11.070;2024-02-21T23:13:25;4.75;;;2.47;;
16029;SDS011;34770;49.272;11.070;2024-02-21T23:15:51;2.55;;;2.10;;
16029;SDS011;34770;49.272;11.070;2024-02-21T23:18:16;3.10;;;2.30;;
16029;SDS011;34770;49.272;11.070;2024-02-21T23:20:42;2.90;;;2.70;;
16029;SDS011;34770;49.272;11.070;2024-02-21T23:23:08;2.78;;;2.58;;
16029;SDS011;34770;49.272;11.070;2024-02-21T23:25:34;2.58;;;2.38;;
16029;SDS011;34770;49.272;11.070;2024-02-21T23:27:59;2.47;;;2.25;;
16029;SDS011;34770;49.272;11.070;2024-02-21T23:30:25;4.93;;;2.80;;
16029;SDS011;34770;49.272;11.070;2024-02-21T23:32:50;2.63;;;2.42;;
16029;SDS011;34770;49.272;11.070;2024-02-21T23:35:16;3.05;;;2.47;;
16029;SDS011;34770;49.272;11.070;2024-02-21T23:37:41;3.30;;;2.33;;
16029;SDS011;34770;49.272;11.070;2024-02-21T23:40:07;4.05;;;2.70;;
16029;SDS011;34770;49.272;11.070;2024-02-21T23:42:35;2.35;;;2.15;;
16029;SDS011;34770;49.272;11.070;2024-02-21T23:45:03;2.55;;;2.25;;
16029;SDS011;34770;49.272;11.070;2024-02-21T23:47:29;3.03;;;2.30;;
16029;SDS011;34770;49.272;11.070;2024-02-21T23:49:55;3.53;;;2.33;;
16029;SDS011;34770;49.272;11.070;2024-02-21T23:52:20;3.13;;;2.72;;
16029;SDS011;34770;49.272;11.070;2024-02-21T23:54:46;3.05;;;2.65;;
16029;SDS011;34770;49.272;11.070;2024-02-21T23:57:11;2.45;;;2.25;;
16029;SDS011;34770;49.272;11.070;2024-02-21T23:59:36;3.58;;;2.30;;
